METAR Data
IDs: Format: Raw Decoded Include TAF

Data at: 1612 UTC 21 Sep 2018

KRSV 211555Z AUTO 24006KT 10SM OVC110 24/22 A3002 RMK AO2 T02420219
KRSV 211535Z AUTO 22006KT 10SM OVC110 24/22 A3001 RMK AO2 T02400220
KRSV 211515Z AUTO 21007KT 10SM SCT060 SCT070 OVC090 24/22 A3001 RMK AO2 T02350220
KRSV 211455Z AUTO 23008KT 10SM SCT070 BKN100 OVC120 24/22 A3001 RMK AO2 T02360220
KRSV 211435Z AUTO 23004KT 10SM -RA SCT075 BKN100 23/22 A3001 RMK AO2 T02310220
KRSV 211415Z AUTO 24010G16KT 10SM SCT050 BKN060 OVC100 24/21 A3001 RMK AO2 T02440212
KRSV 211355Z AUTO 25009G14KT 10SM SCT039 OVC060 25/22 A3001 RMK AO2 T02450216
KRSV 211335Z AUTO 24010G17KT 10SM SCT050 BKN060 OVC085 25/21 A3001 RMK AO2 T02510208
KRSV 211315Z AUTO 23006KT 10SM BKN080 BKN090 25/21 A2998 RMK AO2 T02540210
KRSV 211255Z AUTO 22010KT 10SM CLR 25/21 A2997 RMK AO2 T02460206
KRSV 211235Z AUTO 22006KT 10SM CLR 24/21 A2997 RMK AO2 LTG DSNT NW T02380205
KRSV 211215Z AUTO 20006KT 10SM CLR 23/20 A2997 RMK AO2 T02270203
KRSV 211155Z AUTO 20005KT 10SM CLR 22/20 A2996 RMK AO2 T02150200 10227 20206
KRSV 211135Z AUTO 19005KT 10SM CLR 21/20 A2996 RMK AO2 T02100196
KRSV 211115Z AUTO 19004KT 10SM CLR 21/20 A2996 RMK AO2 T02060195
KRSV 211055Z AUTO 19005KT 10SM CLR 21/20 A2996 RMK AO2 T02080195
KRSV 211035Z AUTO 19005KT 10SM CLR 21/19 A2996 RMK AO2 T02080193
KRSV 211015Z AUTO 19005KT 10SM CLR 21/19 A2996 RMK AO2 T02090194
KRSV 210955Z AUTO 19006KT 10SM CLR 21/20 A2996 RMK AO2 T02110195
KRSV 210935Z AUTO 19005KT 10SM CLR 21/20 A2996 RMK AO2 T02120195
KRSV 210915Z AUTO 19005KT 10SM SCT110 21/20 A2996 RMK AO2 T02110195
KRSV 210855Z AUTO 20004KT 10SM BKN110 22/20 A2996 RMK AO2 T02150196
KRSV 210835Z AUTO 19005KT 10SM SCT110 22/20 A2996 RMK AO2 T02150196
KRSV 210815Z AUTO 20005KT 10SM CLR 22/20 A2996 RMK AO2 T02170195
KRSV 210755Z AUTO 20004KT 10SM SCT110 21/20 A2996 RMK AO2 T02140197
KRSV 210735Z AUTO 20003KT 10SM SCT110 22/20 A2996 RMK AO2 T02160200
KRSV 210715Z AUTO 19005KT 10SM CLR 22/20 A2997 RMK AO2 T02220200
KRSV 210655Z AUTO 17006KT 10SM CLR 22/20 A2997 RMK AO2 T02230198
KRSV 210635Z AUTO 20005KT 10SM CLR 22/20 A2997 RMK AO2 T02220200
KRSV 210615Z AUTO 20006KT 10SM CLR 23/20 A2997 RMK AO2 T02250200
KRSV 210555Z AUTO 20005KT 10SM CLR 23/20 A2996 RMK AO2 T02250202 10265 20215 403290181
KRSV 210535Z AUTO 21004KT 10SM CLR 23/21 A2996 RMK AO2 T02280205
KRSV 210515Z AUTO 20005KT 10SM CLR 23/21 A2996 RMK AO2 T02280205
KRSV 210455Z AUTO 20005KT 10SM CLR 23/21 A2996 RMK AO2 T02300205
KRSV 210435Z AUTO 19004KT 10SM CLR 23/21 A2996 RMK AO2 T02320205
KRSV 210415Z AUTO 19006KT 10SM CLR 23/21 A2996 RMK AO2 T02310205
KRSV 210355Z AUTO 19006KT 10SM CLR 23/21 A2996 RMK AO2 T02300205
KRSV 210335Z AUTO 20005KT 10SM CLR 23/20 A2995 RMK AO2 T02280203
KRSV 210315Z AUTO 18005KT 10SM CLR 22/20 A2995 RMK AO2 T02170203
KRSV 210255Z AUTO 19003KT 10SM CLR 23/21 A2995 RMK AO2 T02250206
KRSV 210235Z AUTO 17005KT 10SM CLR 23/21 A2994 RMK AO2 T02280207
KRSV 210215Z AUTO 17003KT 10SM CLR 23/21 A2995 RMK AO2 T02280206
KRSV 210155Z AUTO 18004KT 10SM CLR 23/21 A2994 RMK AO2 T02270210
KRSV 210135Z AUTO 18003KT 10SM CLR 23/21 A2994 RMK AO2 T02330210
KRSV 210115Z AUTO 17003KT 10SM CLR 23/21 A2994 RMK AO2 T02330210
KRSV 210055Z AUTO 19003KT 10SM CLR 24/21 A2995 RMK AO2 T02420210
KRSV 210035Z AUTO 20003KT 10SM CLR 25/21 A2995 RMK AO2 T02530210
KRSV 210015Z AUTO 19003KT 10SM CLR 26/21 A2994 RMK AO2 T02550212
KRSV 202355Z AUTO 19004KT 10SM CLR 27/21 A2995 RMK AO2 T02650213 10329 20265
KRSV 202335Z AUTO 19005KT 10SM CLR 28/21 A2995 RMK AO2 T02780213
KRSV 202315Z AUTO 20007KT 10SM CLR 30/21 A2995 RMK AO2 T02950210
KRSV 202255Z AUTO 21010KT 10SM CLR 31/21 A2995 RMK AO2 T03050207
KRSV 202235Z AUTO 21007KT 10SM CLR 31/21 A2995 RMK AO2 T03080211
KRSV 202215Z AUTO 20005KT 10SM CLR 31/22 A2995 RMK AO2 T03090216
KRSV 202155Z AUTO 21009KT 10SM CLR 32/21 A2996 RMK AO2 T03150210
KRSV 202135Z AUTO 19009KT 10SM SCT065 31/22 A2996 RMK AO2 T03110215
KRSV 202115Z AUTO 23006G09KT 10SM SCT100 33/21 A2996 RMK AO2 T03260211
KRSV 202055Z AUTO 20006KT 10SM CLR 31/22 A2996 RMK AO2 T03120220
KRSV 202035Z AUTO 22009KT 10SM CLR 32/21 A2996 RMK AO2 T03170212
KRSV 202015Z AUTO 21005KT 10SM CLR 33/22 A2997 RMK AO2 T03280216
KRSV 201955Z AUTO 19008KT 10SM CLR 33/22 A2997 RMK AO2 T03260224
KRSV 201935Z AUTO 20008KT 10SM SCT100 33/22 A2998 RMK AO2 T03250222
KRSV 201915Z AUTO 20006KT 10SM SCT090 BKN110 32/22 A2999 RMK AO2 T03230219
KRSV 201855Z AUTO 23005KT 10SM SCT110 30/22 A3000 RMK AO2 T03020220
KRSV 201835Z AUTO 22008KT 10SM SCT049 SCT065 SCT075 31/22 A3001 RMK AO2 T03100216
KRSV 201815Z AUTO 23006KT 10SM SCT049 SCT100 BKN120 31/23 A3001 RMK AO2 T03140225
KRSV 201755Z AUTO 22009KT 10SM SCT049 SCT120 32/22 A3002 RMK AO2 T03180223 10323 20190
KRSV 201735Z AUTO 20006KT 10SM SCT049 32/23 A3003 RMK AO2 T03170231
KRSV 201715Z AUTO 20005KT 10SM SCT047 SCT085 32/23 A3003 RMK AO2 T03160230
KRSV 201655Z AUTO 24005KT 10SM BKN085 31/23 A3004 RMK AO2 T03100229
KRSV 201635Z AUTO 21005KT 10SM SCT060 BKN085 31/23 A3005 RMK AO2 T03140228
KRSV 201615Z AUTO 21005G08KT 10SM BKN075 BKN085 30/23 A3005 RMK AO2 T03020230
KRSV 201555Z AUTO 23008KT 10SM SCT055 OVC075 30/23 A3006 RMK AO2 T03000229
KRSV 201535Z AUTO 22008KT 10SM SCT055 BKN075 29/23 A3006 RMK AO2 T02920227
KRSV 201515Z AUTO 21009KT 10SM SCT055 29/23 A3006 RMK AO2 T02890225
KRSV 201455Z AUTO 21009KT 10SM SCT055 28/22 A3006 RMK AO2 T02810224
KRSV 201435Z AUTO 21006KT 10SM CLR 27/23 A3006 RMK AO2 T02740233
KRSV 201415Z AUTO 21007KT 10SM CLR 26/23 A3005 RMK AO2 T02640230
KRSV 201355Z AUTO 20005KT 10SM CLR 25/23 A3004 RMK AO2 T02520229
KRSV 201335Z AUTO 19006KT 10SM CLR 24/23 A3004 RMK AO2 T02400227
KRSV 201315Z AUTO 19006KT 10SM CLR 23/23 A3004 RMK AO2 T02310226
KRSV 201255Z AUTO 00000KT 7SM CLR 22/22 A3005 RMK AO2 T02150215
KRSV 201235Z AUTO 00000KT 7SM CLR 21/21 A3004 RMK AO2 T02050205
KRSV 201215Z AUTO 00000KT 4SM BR CLR 19/19 A3003 RMK AO2 T01910191
KRSV 201155Z AUTO 00000KT 4SM BR CLR 19/19 A3003 RMK AO2 T01910191 10200 20181
KRSV 201135Z AUTO 00000KT 4SM BR CLR 19/19 A3003 RMK AO2 T01880188
KRSV 201115Z AUTO 00000KT 7SM SCT050 19/19 A3002 RMK AO2 T01860186
KRSV 201055Z AUTO 00000KT 4SM BR SCT050 19/19 A3002 RMK AO2 T01870187
KRSV 201035Z AUTO 00000KT 2SM BR CLR 19/19 A3002 RMK AO2 T01870187
KRSV 201015Z AUTO 00000KT 4SM BR CLR 19/19 A3002 RMK AO2 T01880188
KRSV 200955Z AUTO 00000KT 3SM BR CLR 19/19 A3001 RMK AO2 T01900190
KRSV 200935Z AUTO 00000KT 1SM BR VV007 19/19 A3001 RMK AO2 T01890189
KRSV 200915Z AUTO 00000KT 1/2SM FG VV005 18/18 A3001 RMK AO2 T01830183
KRSV 200855Z AUTO 00000KT 1SM BR VV007 18/18 A3001 RMK AO2 T01830183
KRSV 200835Z AUTO 00000KT 5SM BR CLR 19/19 A3001 RMK AO2 T01880188
KRSV 200815Z AUTO 00000KT 7SM CLR 19/19 A3001 RMK AO2 T01930193
KRSV 200755Z AUTO 00000KT 5SM BR CLR 19/19 A3000 RMK AO2 T01910191
KRSV 200735Z AUTO 00000KT 5SM BR CLR 19/19 A3000 RMK AO2 T01890189
KRSV 200715Z AUTO 00000KT 5SM BR CLR 19/19 A3000 RMK AO2 T01890189
KRSV 200655Z AUTO 00000KT 5SM BR CLR 19/19 A3000 RMK AO2 T01870187
KRSV 200635Z AUTO 00000KT 5SM BR CLR 19/19 A3000 RMK AO2 T01900190
KRSV 200615Z AUTO 00000KT 1 1/2SM BR VV007 20/20 A2999 RMK AO2 VIS 1/2V5 T01980198
KRSV 200555Z AUTO 00000KT 5SM BR CLR 20/20 A2998 RMK AO2 T01970197 10257 20197 403300177
KRSV 200535Z AUTO 00000KT 7SM CLR 21/21 A2998 RMK AO2 T02050205
KRSV 200515Z AUTO 00000KT 7SM CLR 20/20 A2999 RMK AO2 T02030203
KRSV 200455Z AUTO 00000KT 7SM CLR 21/21 A2999 RMK AO2 T02050205
KRSV 200435Z AUTO 00000KT 10SM CLR 21/21 A2999 RMK AO2 T02050205
KRSV 200415Z AUTO 00000KT 10SM CLR 21/21 A2999 RMK AO2 T02120212